sensor_id;sensor_type;location;lat;lon;timestamp;P1;durP1;ratioP1;P2;durP2;ratioP2
72856;SDS011;62742;52.136;4.500;2023-08-07T00:01:28;14.57;;;2.92;;
72856;SDS011;62742;52.136;4.500;2023-08-07T00:03:54;16.25;;;2.75;;
72856;SDS011;62742;52.136;4.500;2023-08-07T00:06:21;16.73;;;3.03;;
72856;SDS011;62742;52.136;4.500;2023-08-07T00:08:47;17.50;;;2.60;;
72856;SDS011;62742;52.136;4.500;2023-08-07T00:11:14;13.38;;;2.97;;
72856;SDS011;62742;52.136;4.500;2023-08-07T00:13:40;13.75;;;2.92;;
72856;SDS011;62742;52.136;4.500;2023-08-07T00:16:07;10.75;;;2.63;;
72856;SDS011;62742;52.136;4.500;2023-08-07T00:18:37;11.93;;;2.60;;
72856;SDS011;62742;52.136;4.500;2023-08-07T00:21:03;15.38;;;3.50;;
72856;SDS011;62742;52.136;4.500;2023-08-07T00:23:29;14.45;;;2.58;;
72856;SDS011;62742;52.136;4.500;2023-08-07T00:25:56;10.68;;;2.72;;
72856;SDS011;62742;52.136;4.500;2023-08-07T00:28:22;12.77;;;3.30;;
72856;SDS011;62742;52.136;4.500;2023-08-07T00:30:49;12.15;;;3.05;;
72856;SDS011;62742;52.136;4.500;2023-08-07T00:33:15;13.20;;;2.78;;
72856;SDS011;62742;52.136;4.500;2023-08-07T00:35:41;11.75;;;2.67;;
72856;SDS011;62742;52.136;4.500;2023-08-07T00:38:08;12.55;;;3.10;;
72856;SDS011;62742;52.136;4.500;2023-08-07T00:40:38;13.40;;;2.47;;
72856;SDS011;62742;52.136;4.500;2023-08-07T00:43:05;10.73;;;3.10;;
72856;SDS011;62742;52.136;4.500;2023-08-07T00:45:35;12.73;;;2.22;;
72856;SDS011;62742;52.136;4.500;2023-08-07T00:48:08;10.07;;;2.38;;
72856;SDS011;62742;52.136;4.500;2023-08-07T00:50:36;14.07;;;2.80;;
72856;SDS011;62742;52.136;4.500;2023-08-07T00:53:03;12.35;;;3.10;;
72856;SDS011;62742;52.136;4.500;2023-08-07T00:55:31;13.82;;;3.50;;
72856;SDS011;62742;52.136;4.500;2023-08-07T00:57:58;16.98;;;3.60;;
72856;SDS011;62742;52.136;4.500;2023-08-07T01:00:26;23.05;;;3.95;;
72856;SDS011;62742;52.136;4.500;2023-08-07T01:02:55;17.13;;;4.03;;
72856;SDS011;62742;52.136;4.500;2023-08-07T01:05:24;11.65;;;3.20;;
72856;SDS011;62742;52.136;4.500;2023-08-07T01:07:53;15.18;;;3.47;;
72856;SDS011;62742;52.136;4.500;2023-08-07T01:13:24;16.48;;;3.58;;
72856;SDS011;62742;52.136;4.500;2023-08-07T01:16:02;12.88;;;2.90;;
72856;SDS011;62742;52.136;4.500;2023-08-07T01:18:39;14.10;;;3.20;;
72856;SDS011;62742;52.136;4.500;2023-08-07T01:21:16;16.30;;;4.03;;
72856;SDS011;62742;52.136;4.500;2023-08-07T01:23:46;15.93;;;2.90;;
72856;SDS011;62742;52.136;4.500;2023-08-07T01:26:14;16.75;;;3.30;;
72856;SDS011;62742;52.136;4.500;2023-08-07T01:29:05;14.30;;;3.45;;
72856;SDS011;62742;52.136;4.500;2023-08-07T01:31:41;10.88;;;2.83;;
72856;SDS011;62742;52.136;4.500;2023-08-07T01:34:13;16.20;;;3.72;;
72856;SDS011;62742;52.136;4.500;2023-08-07T01:36:47;13.77;;;3.53;;
72856;SDS011;62742;52.136;4.500;2023-08-07T01:39:16;17.13;;;3.70;;
72856;SDS011;62742;52.136;4.500;2023-08-07T01:41:45;14.40;;;3.03;;
72856;SDS011;62742;52.136;4.500;2023-08-07T01:44:13;13.02;;;3.38;;
72856;SDS011;62742;52.136;4.500;2023-08-07T01:46:40;15.30;;;3.28;;
72856;SDS011;62742;52.136;4.500;2023-08-07T01:49:06;18.67;;;3.30;;
72856;SDS011;62742;52.136;4.500;2023-08-07T01:51:33;15.68;;;2.78;;
72856;SDS011;62742;52.136;4.500;2023-08-07T01:53:59;16.90;;;3.60;;
72856;SDS011;62742;52.136;4.500;2023-08-07T01:56:26;14.02;;;3.05;;
72856;SDS011;62742;52.136;4.500;2023-08-07T01:58:52;14.02;;;3.10;;
72856;SDS011;62742;52.136;4.500;2023-08-07T02:01:18;17.08;;;3.13;;
72856;SDS011;62742;52.136;4.500;2023-08-07T02:03:45;13.48;;;2.80;;
72856;SDS011;62742;52.136;4.500;2023-08-07T02:06:11;14.63;;;3.17;;
72856;SDS011;62742;52.136;4.500;2023-08-07T02:08:37;13.35;;;3.03;;
72856;SDS011;62742;52.136;4.500;2023-08-07T02:11:04;15.82;;;2.97;;
72856;SDS011;62742;52.136;4.500;2023-08-07T02:13:30;19.15;;;3.20;;
72856;SDS011;62742;52.136;4.500;2023-08-07T02:15:57;10.77;;;3.15;;
72856;SDS011;62742;52.136;4.500;2023-08-07T02:18:23;16.42;;;3.15;;
72856;SDS011;62742;52.136;4.500;2023-08-07T02:20:52;14.63;;;3.10;;
72856;SDS011;62742;52.136;4.500;2023-08-07T02:23:19;13.20;;;3.05;;
72856;SDS011;62742;52.136;4.500;2023-08-07T02:25:46;18.70;;;3.63;;
72856;SDS011;62742;52.136;4.500;2023-08-07T02:28:14;15.68;;;3.33;;
72856;SDS011;62742;52.136;4.500;2023-08-07T02:30:40;16.73;;;3.28;;
72856;SDS011;62742;52.136;4.500;2023-08-07T02:33:07;15.18;;;3.10;;
72856;SDS011;62742;52.136;4.500;2023-08-07T02:35:34;16.75;;;3.72;;
72856;SDS011;62742;52.136;4.500;2023-08-07T02:38:00;15.38;;;2.70;;
72856;SDS011;62742;52.136;4.500;2023-08-07T02:40:26;14.65;;;3.03;;
72856;SDS011;62742;52.136;4.500;2023-08-07T02:42:53;12.90;;;2.67;;
72856;SDS011;62742;52.136;4.500;2023-08-07T02:45:19;14.35;;;2.85;;
72856;SDS011;62742;52.136;4.500;2023-08-07T02:47:46;18.45;;;2.60;;
72856;SDS011;62742;52.136;4.500;2023-08-07T02:50:12;17.42;;;3.13;;
72856;SDS011;62742;52.136;4.500;2023-08-07T02:52:39;9.10;;;2.20;;
72856;SDS011;62742;52.136;4.500;2023-08-07T02:55:05;13.80;;;3.20;;
72856;SDS011;62742;52.136;4.500;2023-08-07T02:57:32;12.27;;;2.85;;
72856;SDS011;62742;52.136;4.500;2023-08-07T02:59:59;12.52;;;2.65;;
72856;SDS011;62742;52.136;4.500;2023-08-07T03:02:25;10.48;;;2.20;;
72856;SDS011;62742;52.136;4.500;2023-08-07T03:04:52;11.05;;;2.42;;
72856;SDS011;62742;52.136;4.500;2023-08-07T03:07:18;12.43;;;2.20;;
72856;SDS011;62742;52.136;4.500;2023-08-07T03:09:45;13.18;;;2.65;;
72856;SDS011;62742;52.136;4.500;2023-08-07T03:12:15;8.95;;;2.50;;
72856;SDS011;62742;52.136;4.500;2023-08-07T03:17:08;16.23;;;3.07;;
72856;SDS011;62742;52.136;4.500;2023-08-07T03:19:34;15.52;;;3.08;;
72856;SDS011;62742;52.136;4.500;2023-08-07T03:22:01;13.32;;;2.95;;
72856;SDS011;62742;52.136;4.500;2023-08-07T03:24:28;13.95;;;3.55;;
72856;SDS011;62742;52.136;4.500;2023-08-07T03:26:55;19.25;;;3.60;;
72856;SDS011;62742;52.136;4.500;2023-08-07T03:29:22;16.55;;;2.88;;
72856;SDS011;62742;52.136;4.500;2023-08-07T03:31:49;14.35;;;3.78;;
72856;SDS011;62742;52.136;4.500;2023-08-07T03:34:15;18.08;;;3.55;;
72856;SDS011;62742;52.136;4.500;2023-08-07T03:36:42;18.42;;;3.90;;
72856;SDS011;62742;52.136;4.500;2023-08-07T03:39:08;14.55;;;3.35;;
72856;SDS011;62742;52.136;4.500;2023-08-07T03:41:36;19.77;;;4.00;;
72856;SDS011;62742;52.136;4.500;2023-08-07T03:44:02;14.00;;;3.35;;
72856;SDS011;62742;52.136;4.500;2023-08-07T03:46:29;14.77;;;3.22;;
72856;SDS011;62742;52.136;4.500;2023-08-07T03:48:56;18.90;;;3.92;;
72856;SDS011;62742;52.136;4.500;2023-08-07T03:53:48;17.08;;;4.30;;
72856;SDS011;62742;52.136;4.500;2023-08-07T03:56:15;14.43;;;3.25;;
72856;SDS011;62742;52.136;4.500;2023-08-07T03:58:42;18.52;;;3.58;;
72856;SDS011;62742;52.136;4.500;2023-08-07T04:01:08;15.70;;;3.28;;
72856;SDS011;62742;52.136;4.500;2023-08-07T04:03:36;10.57;;;2.78;;
72856;SDS011;62742;52.136;4.500;2023-08-07T04:06:03;13.88;;;2.60;;
72856;SDS011;62742;52.136;4.500;2023-08-07T04:08:31;14.52;;;2.75;;
72856;SDS011;62742;52.136;4.500;2023-08-07T04:11:01;13.23;;;3.20;;
72856;SDS011;62742;52.136;4.500;2023-08-07T04:13:31;16.27;;;2.90;;
72856;SDS011;62742;52.136;4.500;2023-08-07T04:15:58;17.35;;;3.63;;
72856;SDS011;62742;52.136;4.500;2023-08-07T04:18:26;15.45;;;3.03;;
72856;SDS011;62742;52.136;4.500;2023-08-07T04:20:53;15.55;;;2.70;;
72856;SDS011;62742;52.136;4.500;2023-08-07T04:23:21;15.50;;;2.47;;
72856;SDS011;62742;52.136;4.500;2023-08-07T04:25:48;13.38;;;2.78;;
72856;SDS011;62742;52.136;4.500;2023-08-07T04:28:16;11.85;;;2.50;;
72856;SDS011;62742;52.136;4.500;2023-08-07T04:30:43;15.93;;;2.60;;
72856;SDS011;62742;52.136;4.500;2023-08-07T04:33:11;14.65;;;2.50;;
72856;SDS011;62742;52.136;4.500;2023-08-07T04:35:38;14.32;;;3.17;;
72856;SDS011;62742;52.136;4.500;2023-08-07T04:38:05;12.93;;;2.90;;
72856;SDS011;62742;52.136;4.500;2023-08-07T04:40:33;9.65;;;2.00;;
72856;SDS011;62742;52.136;4.500;2023-08-07T04:43:00;14.88;;;2.78;;
72856;SDS011;62742;52.136;4.500;2023-08-07T04:45:27;11.13;;;2.67;;
72856;SDS011;62742;52.136;4.500;2023-08-07T04:47:54;11.35;;;2.55;;
72856;SDS011;62742;52.136;4.500;2023-08-07T04:50:21;11.57;;;2.72;;
72856;SDS011;62742;52.136;4.500;2023-08-07T04:52:47;14.60;;;2.83;;
72856;SDS011;62742;52.136;4.500;2023-08-07T04:55:13;11.13;;;2.25;;
72856;SDS011;62742;52.136;4.500;2023-08-07T04:57:40;12.10;;;2.78;;
72856;SDS011;62742;52.136;4.500;2023-08-07T05:00:07;15.10;;;3.08;;
72856;SDS011;62742;52.136;4.500;2023-08-07T05:02:36;12.80;;;3.10;;
72856;SDS011;62742;52.136;4.500;2023-08-07T05:05:03;20.05;;;3.78;;
72856;SDS011;62742;52.136;4.500;2023-08-07T05:07:32;21.20;;;3.67;;
72856;SDS011;62742;52.136;4.500;2023-08-07T05:10:03;16.17;;;4.10;;
72856;SDS011;62742;52.136;4.500;2023-08-07T05:12:30;18.65;;;3.50;;
72856;SDS011;62742;52.136;4.500;2023-08-07T05:14:57;16.05;;;3.92;;
72856;SDS011;62742;52.136;4.500;2023-08-07T05:17:23;19.33;;;4.38;;
72856;SDS011;62742;52.136;4.500;2023-08-07T05:19:50;14.05;;;3.70;;
72856;SDS011;62742;52.136;4.500;2023-08-07T05:22:17;17.00;;;3.70;;
72856;SDS011;62742;52.136;4.500;2023-08-07T05:24:43;12.80;;;3.00;;
72856;SDS011;62742;52.136;4.500;2023-08-07T05:27:11;19.25;;;4.13;;
72856;SDS011;62742;52.136;4.500;2023-08-07T05:29:38;19.58;;;3.38;;
72856;SDS011;62742;52.136;4.500;2023-08-07T05:32:12;17.63;;;3.90;;
72856;SDS011;62742;52.136;4.500;2023-08-07T05:34:42;19.95;;;4.35;;
72856;SDS011;62742;52.136;4.500;2023-08-07T05:37:12;14.10;;;4.22;;
72856;SDS011;62742;52.136;4.500;2023-08-07T05:39:39;15.93;;;4.63;;
72856;SDS011;62742;52.136;4.500;2023-08-07T05:42:05;16.98;;;3.83;;
72856;SDS011;62742;52.136;4.500;2023-08-07T05:44:33;15.30;;;3.92;;
72856;SDS011;62742;52.136;4.500;2023-08-07T05:47:00;13.15;;;3.30;;
72856;SDS011;62742;52.136;4.500;2023-08-07T05:49:26;16.42;;;3.78;;
72856;SDS011;62742;52.136;4.500;2023-08-07T05:51:53;16.92;;;3.63;;
72856;SDS011;62742;52.136;4.500;2023-08-07T05:54:19;17.25;;;3.80;;
72856;SDS011;62742;52.136;4.500;2023-08-07T05:56:46;17.15;;;4.03;;
72856;SDS011;62742;52.136;4.500;2023-08-07T05:59:12;17.52;;;4.03;;
72856;SDS011;62742;52.136;4.500;2023-08-07T06:01:39;14.60;;;4.03;;
72856;SDS011;62742;52.136;4.500;2023-08-07T06:04:06;14.60;;;3.45;;
72856;SDS011;62742;52.136;4.500;2023-08-07T06:06:33;20.90;;;3.58;;
72856;SDS011;62742;52.136;4.500;2023-08-07T06:09:01;15.35;;;3.80;;
72856;SDS011;62742;52.136;4.500;2023-08-07T06:11:29;21.02;;;3.10;;
72856;SDS011;62742;52.136;4.500;2023-08-07T06:13:55;18.33;;;3.47;;
72856;SDS011;62742;52.136;4.500;2023-08-07T06:16:22;15.70;;;3.50;;
72856;SDS011;62742;52.136;4.500;2023-08-07T06:18:48;14.80;;;3.38;;
72856;SDS011;62742;52.136;4.500;2023-08-07T06:21:15;13.70;;;3.30;;
72856;SDS011;62742;52.136;4.500;2023-08-07T06:23:41;10.13;;;2.95;;
72856;SDS011;62742;52.136;4.500;2023-08-07T06:26:09;14.75;;;3.10;;
72856;SDS011;62742;52.136;4.500;2023-08-07T06:28:35;11.70;;;3.10;;
72856;SDS011;62742;52.136;4.500;2023-08-07T06:31:05;10.65;;;2.67;;
72856;SDS011;62742;52.136;4.500;2023-08-07T06:33:34;14.68;;;2.85;;
72856;SDS011;62742;52.136;4.500;2023-08-07T06:36:06;9.00;;;2.63;;
72856;SDS011;62742;52.136;4.500;2023-08-07T06:38:35;12.88;;;3.05;;
72856;SDS011;62742;52.136;4.500;2023-08-07T06:41:02;8.15;;;2.50;;
72856;SDS011;62742;52.136;4.500;2023-08-07T06:43:29;9.55;;;2.78;;
72856;SDS011;62742;52.136;4.500;2023-08-07T06:45:56;13.60;;;2.72;;
72856;SDS011;62742;52.136;4.500;2023-08-07T06:48:23;10.05;;;2.50;;
72856;SDS011;62742;52.136;4.500;2023-08-07T06:50:50;11.27;;;2.78;;
72856;SDS011;62742;52.136;4.500;2023-08-07T06:53:17;9.70;;;2.85;;
72856;SDS011;62742;52.136;4.500;2023-08-07T06:55:45;14.10;;;2.72;;
72856;SDS011;62742;52.136;4.500;2023-08-07T06:58:11;9.88;;;2.72;;
72856;SDS011;62742;52.136;4.500;2023-08-07T07:00:38;11.88;;;2.45;;
72856;SDS011;62742;52.136;4.500;2023-08-07T07:03:05;12.75;;;2.47;;
72856;SDS011;62742;52.136;4.500;2023-08-07T07:05:33;7.18;;;1.88;;
72856;SDS011;62742;52.136;4.500;2023-08-07T07:08:00;11.45;;;2.05;;
72856;SDS011;62742;52.136;4.500;2023-08-07T07:10:26;10.23;;;2.20;;
72856;SDS011;62742;52.136;4.500;2023-08-07T07:12:53;9.07;;;2.45;;
72856;SDS011;62742;52.136;4.500;2023-08-07T07:15:19;12.18;;;2.72;;
72856;SDS011;62742;52.136;4.500;2023-08-07T07:17:46;11.93;;;2.50;;
72856;SDS011;62742;52.136;4.500;2023-08-07T07:20:12;10.77;;;1.95;;
72856;SDS011;62742;52.136;4.500;2023-08-07T07:22:39;8.45;;;2.22;;
72856;SDS011;62742;52.136;4.500;2023-08-07T07:25:06;10.05;;;2.53;;
72856;SDS011;62742;52.136;4.500;2023-08-07T07:27:35;6.10;;;1.73;;
72856;SDS011;62742;52.136;4.500;2023-08-07T07:30:01;9.10;;;1.90;;
72856;SDS011;62742;52.136;4.500;2023-08-07T07:32:28;11.38;;;2.60;;
72856;SDS011;62742;52.136;4.500;2023-08-07T07:34:54;15.70;;;2.67;;
72856;SDS011;62742;52.136;4.500;2023-08-07T07:37:21;10.05;;;2.63;;
72856;SDS011;62742;52.136;4.500;2023-08-07T07:39:48;11.18;;;2.47;;
72856;SDS011;62742;52.136;4.500;2023-08-07T07:42:16;10.02;;;2.53;;
72856;SDS011;62742;52.136;4.500;2023-08-07T07:44:42;9.02;;;2.25;;
72856;SDS011;62742;52.136;4.500;2023-08-07T07:47:09;8.57;;;2.45;;
72856;SDS011;62742;52.136;4.500;2023-08-07T07:49:36;8.98;;;2.28;;
72856;SDS011;62742;52.136;4.500;2023-08-07T07:52:03;8.27;;;2.45;;
72856;SDS011;62742;52.136;4.500;2023-08-07T07:54:30;7.97;;;1.80;;
72856;SDS011;62742;52.136;4.500;2023-08-07T07:56:56;10.05;;;2.10;;
72856;SDS011;62742;52.136;4.500;2023-08-07T07:59:23;8.30;;;2.00;;
72856;SDS011;62742;52.136;4.500;2023-08-07T08:01:49;11.98;;;2.83;;
72856;SDS011;62742;52.136;4.500;2023-08-07T08:04:17;7.05;;;1.73;;
72856;SDS011;62742;52.136;4.500;2023-08-07T08:06:45;7.10;;;1.67;;
72856;SDS011;62742;52.136;4.500;2023-08-07T08:09:14;9.57;;;1.80;;
72856;SDS011;62742;52.136;4.500;2023-08-07T08:11:41;7.95;;;1.98;;
72856;SDS011;62742;52.136;4.500;2023-08-07T08:14:08;8.88;;;2.08;;
72856;SDS011;62742;52.136;4.500;2023-08-07T08:16:34;10.70;;;2.08;;
72856;SDS011;62742;52.136;4.500;2023-08-07T08:19:03;8.55;;;2.15;;
72856;SDS011;62742;52.136;4.500;2023-08-07T08:21:35;8.80;;;1.83;;
72856;SDS011;62742;52.136;4.500;2023-08-07T08:24:05;7.28;;;1.90;;
72856;SDS011;62742;52.136;4.500;2023-08-07T08:26:31;12.20;;;2.35;;
72856;SDS011;62742;52.136;4.500;2023-08-07T08:28:59;10.63;;;2.45;;
72856;SDS011;62742;52.136;4.500;2023-08-07T08:31:26;10.05;;;1.95;;
72856;SDS011;62742;52.136;4.500;2023-08-07T08:33:54;8.98;;;2.00;;
72856;SDS011;62742;52.136;4.500;2023-08-07T08:36:21;5.55;;;1.90;;
72856;SDS011;62742;52.136;4.500;2023-08-07T08:38:48;10.27;;;1.98;;
72856;SDS011;62742;52.136;4.500;2023-08-07T08:41:14;9.65;;;2.30;;
72856;SDS011;62742;52.136;4.500;2023-08-07T08:43:42;12.20;;;2.28;;
72856;SDS011;62742;52.136;4.500;2023-08-07T08:46:15;9.52;;;1.98;;
72856;SDS011;62742;52.136;4.500;2023-08-07T08:48:46;13.27;;;2.13;;
72856;SDS011;62742;52.136;4.500;2023-08-07T08:51:18;10.25;;;1.95;;
72856;SDS011;62742;52.136;4.500;2023-08-07T08:53:47;10.63;;;2.08;;
72856;SDS011;62742;52.136;4.500;2023-08-07T08:56:15;9.82;;;2.33;;
72856;SDS011;62742;52.136;4.500;2023-08-07T08:58:43;11.80;;;2.22;;
72856;SDS011;62742;52.136;4.500;2023-08-07T09:01:09;9.27;;;1.90;;
72856;SDS011;62742;52.136;4.500;2023-08-07T09:03:38;8.80;;;1.88;;
72856;SDS011;62742;52.136;4.500;2023-08-07T09:06:05;7.18;;;1.90;;
72856;SDS011;62742;52.136;4.500;2023-08-07T09:08:33;7.85;;;1.90;;
72856;SDS011;62742;52.136;4.500;2023-08-07T09:11:02;9.95;;;1.85;;
72856;SDS011;62742;52.136;4.500;2023-08-07T09:13:29;8.73;;;1.83;;
72856;SDS011;62742;52.136;4.500;2023-08-07T09:15:59;10.48;;;2.17;;
72856;SDS011;62742;52.136;4.500;2023-08-07T09:18:28;9.60;;;1.83;;
72856;SDS011;62742;52.136;4.500;2023-08-07T09:20:55;9.20;;;2.33;;
72856;SDS011;62742;52.136;4.500;2023-08-07T09:23:23;7.20;;;2.00;;
72856;SDS011;62742;52.136;4.500;2023-08-07T09:26:03;7.25;;;2.00;;
72856;SDS011;62742;52.136;4.500;2023-08-07T09:28:31;10.35;;;2.15;;
72856;SDS011;62742;52.136;4.500;2023-08-07T09:30:58;9.43;;;2.00;;
72856;SDS011;62742;52.136;4.500;2023-08-07T09:33:29;12.00;;;2.10;;
72856;SDS011;62742;52.136;4.500;2023-08-07T09:36:00;7.30;;;1.75;;
72856;SDS011;62742;52.136;4.500;2023-08-07T09:38:29;8.07;;;1.88;;
72856;SDS011;62742;52.136;4.500;2023-08-07T09:41:00;7.07;;;1.95;;
72856;SDS011;62742;52.136;4.500;2023-08-07T09:43:29;13.18;;;2.25;;
72856;SDS011;62742;52.136;4.500;2023-08-07T09:46:04;6.65;;;2.20;;
72856;SDS011;62742;52.136;4.500;2023-08-07T09:48:40;9.98;;;2.55;;
72856;SDS011;62742;52.136;4.500;2023-08-07T09:51:09;9.88;;;1.80;;
72856;SDS011;62742;52.136;4.500;2023-08-07T09:53:36;10.05;;;2.00;;
72856;SDS011;62742;52.136;4.500;2023-08-07T09:56:03;6.95;;;1.60;;
72856;SDS011;62742;52.136;4.500;2023-08-07T09:58:30;9.40;;;2.00;;
72856;SDS011;62742;52.136;4.500;2023-08-07T10:01:00;7.05;;;1.70;;
72856;SDS011;62742;52.136;4.500;2023-08-07T10:03:30;11.18;;;2.20;;
72856;SDS011;62742;52.136;4.500;2023-08-07T10:05:58;6.15;;;1.83;;
72856;SDS011;62742;52.136;4.500;2023-08-07T10:08:25;8.38;;;1.70;;
72856;SDS011;62742;52.136;4.500;2023-08-07T10:10:52;7.57;;;1.50;;
72856;SDS011;62742;52.136;4.500;2023-08-07T10:13:20;8.85;;;1.85;;
72856;SDS011;62742;52.136;4.500;2023-08-07T10:15:49;8.82;;;1.60;;
72856;SDS011;62742;52.136;4.500;2023-08-07T10:18:16;8.18;;;1.92;;
72856;SDS011;62742;52.136;4.500;2023-08-07T10:20:43;6.40;;;1.50;;
72856;SDS011;62742;52.136;4.500;2023-08-07T10:23:10;7.30;;;1.92;;
72856;SDS011;62742;52.136;4.500;2023-08-07T10:25:39;7.40;;;1.70;;
72856;SDS011;62742;52.136;4.500;2023-08-07T10:28:12;8.70;;;1.83;;
72856;SDS011;62742;52.136;4.500;2023-08-07T10:30:45;16.45;;;6.22;;
72856;SDS011;62742;52.136;4.500;2023-08-07T10:33:12;9.02;;;1.83;;
72856;SDS011;62742;52.136;4.500;2023-08-07T10:35:47;6.68;;;1.63;;
72856;SDS011;62742;52.136;4.500;2023-08-07T10:38:14;7.53;;;1.95;;
72856;SDS011;62742;52.136;4.500;2023-08-07T10:43:41;11.75;;;2.20;;
72856;SDS011;62742;52.136;4.500;2023-08-07T10:48:46;6.85;;;1.88;;
72856;SDS011;62742;52.136;4.500;2023-08-07T10:51:19;10.55;;;2.33;;
72856;SDS011;62742;52.136;4.500;2023-08-07T10:53:49;11.63;;;2.30;;
72856;SDS011;62742;52.136;4.500;2023-08-07T10:56:39;6.40;;;1.70;;
72856;SDS011;62742;52.136;4.500;2023-08-07T10:59:08;10.50;;;2.13;;
72856;SDS011;62742;52.136;4.500;2023-08-07T11:01:40;7.70;;;2.05;;
72856;SDS011;62742;52.136;4.500;2023-08-07T11:04:09;6.35;;;1.48;;
72856;SDS011;62742;52.136;4.500;2023-08-07T11:06:40;8.35;;;1.80;;
72856;SDS011;62742;52.136;4.500;2023-08-07T11:09:08;7.68;;;2.13;;
72856;SDS011;62742;52.136;4.500;2023-08-07T11:11:36;5.63;;;2.00;;
72856;SDS011;62742;52.136;4.500;2023-08-07T11:14:13;5.45;;;1.70;;
72856;SDS011;62742;52.136;4.500;2023-08-07T11:16:42;7.30;;;1.58;;
72856;SDS011;62742;52.136;4.500;2023-08-07T11:19:11;8.52;;;2.00;;
72856;SDS011;62742;52.136;4.500;2023-08-07T11:21:41;8.65;;;2.08;;
72856;SDS011;62742;52.136;4.500;2023-08-07T11:24:09;5.70;;;1.60;;
72856;SDS011;62742;52.136;4.500;2023-08-07T11:26:39;7.28;;;1.67;;
72856;SDS011;62742;52.136;4.500;2023-08-07T11:29:07;9.15;;;1.90;;
72856;SDS011;62742;52.136;4.500;2023-08-07T11:31:35;5.25;;;1.50;;
72856;SDS011;62742;52.136;4.500;2023-08-07T11:34:01;8.73;;;2.42;;
72856;SDS011;62742;52.136;4.500;2023-08-07T11:36:28;6.22;;;1.38;;
72856;SDS011;62742;52.136;4.500;2023-08-07T11:38:55;8.75;;;2.30;;
72856;SDS011;62742;52.136;4.500;2023-08-07T11:41:21;5.40;;;1.70;;
72856;SDS011;62742;52.136;4.500;2023-08-07T11:43:48;5.07;;;1.50;;
72856;SDS011;62742;52.136;4.500;2023-08-07T11:46:15;4.55;;;1.40;;
72856;SDS011;62742;52.136;4.500;2023-08-07T11:48:43;4.32;;;1.38;;
72856;SDS011;62742;52.136;4.500;2023-08-07T11:51:10;5.57;;;1.65;;
72856;SDS011;62742;52.136;4.500;2023-08-07T11:53:37;5.95;;;1.55;;
72856;SDS011;62742;52.136;4.500;2023-08-07T11:56:08;7.97;;;1.75;;
72856;SDS011;62742;52.136;4.500;2023-08-07T11:58:37;6.63;;;1.50;;
72856;SDS011;62742;52.136;4.500;2023-08-07T12:03:41;5.93;;;1.70;;
72856;SDS011;62742;52.136;4.500;2023-08-07T12:06:16;6.18;;;1.52;;
72856;SDS011;62742;52.136;4.500;2023-08-07T12:08:43;5.72;;;1.70;;
72856;SDS011;62742;52.136;4.500;2023-08-07T12:11:10;5.32;;;1.88;;
72856;SDS011;62742;52.136;4.500;2023-08-07T12:13:39;6.38;;;1.90;;
72856;SDS011;62742;52.136;4.500;2023-08-07T12:16:08;7.18;;;1.83;;
72856;SDS011;62742;52.136;4.500;2023-08-07T12:18:35;6.72;;;2.00;;
72856;SDS011;62742;52.136;4.500;2023-08-07T12:21:06;8.60;;;2.10;;
72856;SDS011;62742;52.136;4.500;2023-08-07T12:23:34;8.52;;;2.28;;
72856;SDS011;62742;52.136;4.500;2023-08-07T12:26:02;6.47;;;1.90;;
72856;SDS011;62742;52.136;4.500;2023-08-07T12:28:34;6.70;;;1.88;;
72856;SDS011;62742;52.136;4.500;2023-08-07T12:31:01;6.00;;;1.90;;
72856;SDS011;62742;52.136;4.500;2023-08-07T12:33:29;7.60;;;2.10;;
72856;SDS011;62742;52.136;4.500;2023-08-07T12:35:56;9.05;;;2.20;;
72856;SDS011;62742;52.136;4.500;2023-08-07T12:38:24;11.18;;;2.45;;
72856;SDS011;62742;52.136;4.500;2023-08-07T12:40:50;6.55;;;1.98;;
72856;SDS011;62742;52.136;4.500;2023-08-07T12:43:18;6.53;;;2.25;;
72856;SDS011;62742;52.136;4.500;2023-08-07T12:45:44;6.35;;;1.92;;
72856;SDS011;62742;52.136;4.500;2023-08-07T12:48:11;8.50;;;2.13;;
72856;SDS011;62742;52.136;4.500;2023-08-07T12:50:38;6.45;;;1.83;;
72856;SDS011;62742;52.136;4.500;2023-08-07T12:53:06;5.20;;;1.88;;
72856;SDS011;62742;52.136;4.500;2023-08-07T12:55:34;8.63;;;2.00;;
72856;SDS011;62742;52.136;4.500;2023-08-07T12:58:00;6.65;;;2.20;;
72856;SDS011;62742;52.136;4.500;2023-08-07T13:00:27;5.13;;;1.70;;
72856;SDS011;62742;52.136;4.500;2023-08-07T13:02:53;6.82;;;2.00;;
72856;SDS011;62742;52.136;4.500;2023-08-07T13:05:22;7.22;;;2.35;;
72856;SDS011;62742;52.136;4.500;2023-08-07T13:07:49;6.97;;;2.20;;
72856;SDS011;62742;52.136;4.500;2023-08-07T13:10:16;9.50;;;2.25;;
72856;SDS011;62742;52.136;4.500;2023-08-07T13:12:43;5.78;;;1.83;;
72856;SDS011;62742;52.136;4.500;2023-08-07T13:15:15;9.23;;;2.63;;
72856;SDS011;62742;52.136;4.500;2023-08-07T13:17:43;8.45;;;2.55;;
72856;SDS011;62742;52.136;4.500;2023-08-07T13:20:11;8.55;;;2.72;;
72856;SDS011;62742;52.136;4.500;2023-08-07T13:22:40;7.45;;;2.17;;
72856;SDS011;62742;52.136;4.500;2023-08-07T13:25:10;6.13;;;1.98;;
72856;SDS011;62742;52.136;4.500;2023-08-07T13:27:38;6.68;;;2.00;;
72856;SDS011;62742;52.136;4.500;2023-08-07T13:30:06;5.45;;;1.95;;
72856;SDS011;62742;52.136;4.500;2023-08-07T13:32:34;5.70;;;1.80;;
72856;SDS011;62742;52.136;4.500;2023-08-07T13:35:02;6.55;;;2.08;;
72856;SDS011;62742;52.136;4.500;2023-08-07T13:37:29;5.20;;;2.00;;
72856;SDS011;62742;52.136;4.500;2023-08-07T13:39:56;7.15;;;2.05;;
72856;SDS011;62742;52.136;4.500;2023-08-07T13:42:25;4.82;;;2.00;;
72856;SDS011;62742;52.136;4.500;2023-08-07T13:44:54;5.43;;;1.83;;
72856;SDS011;62742;52.136;4.500;2023-08-07T13:47:24;6.72;;;2.08;;
72856;SDS011;62742;52.136;4.500;2023-08-07T13:49:52;5.53;;;1.80;;
72856;SDS011;62742;52.136;4.500;2023-08-07T13:52:20;6.18;;;2.13;;
72856;SDS011;62742;52.136;4.500;2023-08-07T13:54:47;7.90;;;2.08;;
72856;SDS011;62742;52.136;4.500;2023-08-07T13:57:13;8.75;;;2.20;;
72856;SDS011;62742;52.136;4.500;2023-08-07T13:59:41;6.18;;;2.50;;
72856;SDS011;62742;52.136;4.500;2023-08-07T14:02:07;8.73;;;2.28;;
72856;SDS011;62742;52.136;4.500;2023-08-07T14:04:35;6.97;;;2.90;;
72856;SDS011;62742;52.136;4.500;2023-08-07T14:07:02;6.78;;;2.80;;
72856;SDS011;62742;52.136;4.500;2023-08-07T14:09:31;8.07;;;2.67;;
72856;SDS011;62742;52.136;4.500;2023-08-07T14:11:57;8.20;;;3.00;;
72856;SDS011;62742;52.136;4.500;2023-08-07T14:14:24;5.35;;;2.47;;
72856;SDS011;62742;52.136;4.500;2023-08-07T14:16:50;8.43;;;3.00;;
72856;SDS011;62742;52.136;4.500;2023-08-07T14:19:17;7.00;;;2.67;;
72856;SDS011;62742;52.136;4.500;2023-08-07T14:21:43;8.40;;;2.97;;
72856;SDS011;62742;52.136;4.500;2023-08-07T14:24:11;8.15;;;2.92;;
72856;SDS011;62742;52.136;4.500;2023-08-07T14:26:37;8.15;;;3.03;;
72856;SDS011;62742;52.136;4.500;2023-08-07T14:29:03;7.05;;;3.45;;
72856;SDS011;62742;52.136;4.500;2023-08-07T14:31:30;7.80;;;2.75;;
72856;SDS011;62742;52.136;4.500;2023-08-07T14:33:57;9.60;;;3.00;;
72856;SDS011;62742;52.136;4.500;2023-08-07T14:36:23;7.47;;;3.15;;
72856;SDS011;62742;52.136;4.500;2023-08-07T14:38:50;8.95;;;3.35;;
72856;SDS011;62742;52.136;4.500;2023-08-07T14:41:17;10.73;;;3.10;;
72856;SDS011;62742;52.136;4.500;2023-08-07T14:43:45;8.32;;;3.05;;
72856;SDS011;62742;52.136;4.500;2023-08-07T14:46:13;10.38;;;2.60;;
72856;SDS011;62742;52.136;4.500;2023-08-07T14:48:45;6.80;;;2.33;;
72856;SDS011;62742;52.136;4.500;2023-08-07T14:51:13;5.85;;;2.35;;
72856;SDS011;62742;52.136;4.500;2023-08-07T14:53:39;9.40;;;2.60;;
72856;SDS011;62742;52.136;4.500;2023-08-07T14:56:07;4.60;;;2.55;;
72856;SDS011;62742;52.136;4.500;2023-08-07T14:58:34;8.30;;;2.42;;
72856;SDS011;62742;52.136;4.500;2023-08-07T15:01:01;6.47;;;2.22;;